sensor_id;sensor_type;location;lat;lon;timestamp;temperature;humidity
12254;DHT22;6189;52.526;13.390;2024-03-06T00:00:09;7.40;99.90
12254;DHT22;6189;52.526;13.390;2024-03-06T00:02:56;7.40;99.90
12254;DHT22;6189;52.526;13.390;2024-03-06T00:05:43;7.40;99.90
12254;DHT22;6189;52.526;13.390;2024-03-06T00:08:30;7.40;99.90
12254;DHT22;6189;52.526;13.390;2024-03-06T00:11:18;7.40;99.90
12254;DHT22;6189;52.526;13.390;2024-03-06T00:14:05;7.40;99.90
12254;DHT22;6189;52.526;13.390;2024-03-06T00:16:54;7.50;99.90
12254;DHT22;6189;52.526;13.390;2024-03-06T00:19:42;7.60;99.90
12254;DHT22;6189;52.526;13.390;2024-03-06T00:22:30;7.60;99.90
12254;DHT22;6189;52.526;13.390;2024-03-06T00:25:17;7.60;99.90
12254;DHT22;6189;52.526;13.390;2024-03-06T00:28:05;7.60;99.90
12254;DHT22;6189;52.526;13.390;2024-03-06T00:30:52;7.50;99.90
12254;DHT22;6189;52.526;13.390;2024-03-06T00:33:44;7.40;99.90
12254;DHT22;6189;52.526;13.390;2024-03-06T00:36:31;7.40;99.90
12254;DHT22;6189;52.526;13.390;2024-03-06T00:39:18;7.30;99.90
12254;DHT22;6189;52.526;13.390;2024-03-06T00:42:06;7.30;99.90
12254;DHT22;6189;52.526;13.390;2024-03-06T00:44:54;7.30;99.90
12254;DHT22;6189;52.526;13.390;2024-03-06T00:47:42;7.30;99.90
12254;DHT22;6189;52.526;13.390;2024-03-06T00:50:30;7.80;99.90
12254;DHT22;6189;52.526;13.390;2024-03-06T00:53:18;7.30;99.90
12254;DHT22;6189;52.526;13.390;2024-03-06T00:56:05;7.30;99.90
12254;DHT22;6189;52.526;13.390;2024-03-06T00:58:52;7.30;99.90
12254;DHT22;6189;52.526;13.390;2024-03-06T01:01:40;7.30;99.90
12254;DHT22;6189;52.526;13.390;2024-03-06T01:04:27;7.30;99.90
12254;DHT22;6189;52.526;13.390;2024-03-06T01:07:16;7.40;99.90
12254;DHT22;6189;52.526;13.390;2024-03-06T01:10:03;7.40;99.90
12254;DHT22;6189;52.526;13.390;2024-03-06T01:12:52;7.40;99.90
12254;DHT22;6189;52.526;13.390;2024-03-06T01:15:39;7.40;99.90
12254;DHT22;6189;52.526;13.390;2024-03-06T01:18:26;7.40;99.90
12254;DHT22;6189;52.526;13.390;2024-03-06T01:21:13;7.30;99.90
12254;DHT22;6189;52.526;13.390;2024-03-06T01:24:02;7.30;99.90
12254;DHT22;6189;52.526;13.390;2024-03-06T01:26:50;7.30;99.90
12254;DHT22;6189;52.526;13.390;2024-03-06T01:29:37;7.20;99.90
12254;DHT22;6189;52.526;13.390;2024-03-06T01:32:24;7.20;99.90
12254;DHT22;6189;52.526;13.390;2024-03-06T01:35:11;7.20;99.90
12254;DHT22;6189;52.526;13.390;2024-03-06T01:37:59;7.20;99.90
12254;DHT22;6189;52.526;13.390;2024-03-06T01:40:48;7.20;99.90
12254;DHT22;6189;52.526;13.390;2024-03-06T01:43:36;7.30;99.90
12254;DHT22;6189;52.526;13.390;2024-03-06T01:46:24;7.30;99.90
12254;DHT22;6189;52.526;13.390;2024-03-06T01:49:11;7.20;99.90
12254;DHT22;6189;52.526;13.390;2024-03-06T01:51:59;7.10;99.90
12254;DHT22;6189;52.526;13.390;2024-03-06T01:54:46;7.10;99.90
12254;DHT22;6189;52.526;13.390;2024-03-06T01:57:36;7.10;99.90
12254;DHT22;6189;52.526;13.390;2024-03-06T02:00:25;7.00;99.90
12254;DHT22;6189;52.526;13.390;2024-03-06T02:03:12;7.10;99.90
12254;DHT22;6189;52.526;13.390;2024-03-06T02:06:00;7.50;99.90
12254;DHT22;6189;52.526;13.390;2024-03-06T02:08:49;7.20;99.90
12254;DHT22;6189;52.526;13.390;2024-03-06T02:11:36;7.20;99.90
12254;DHT22;6189;52.526;13.390;2024-03-06T02:14:24;7.60;99.90
12254;DHT22;6189;52.526;13.390;2024-03-06T02:17:12;7.40;99.90
12254;DHT22;6189;52.526;13.390;2024-03-06T02:19:59;7.10;99.90
12254;DHT22;6189;52.526;13.390;2024-03-06T02:22:48;7.10;99.90
12254;DHT22;6189;52.526;13.390;2024-03-06T02:25:35;7.10;99.90
12254;DHT22;6189;52.526;13.390;2024-03-06T02:28:22;7.10;99.90
12254;DHT22;6189;52.526;13.390;2024-03-06T02:31:10;7.00;99.90
12254;DHT22;6189;52.526;13.390;2024-03-06T02:33:58;7.00;99.90
12254;DHT22;6189;52.526;13.390;2024-03-06T02:36:47;7.10;99.90
12254;DHT22;6189;52.526;13.390;2024-03-06T02:39:35;7.10;99.90
12254;DHT22;6189;52.526;13.390;2024-03-06T02:42:22;7.10;99.90
12254;DHT22;6189;52.526;13.390;2024-03-06T02:45:09;7.10;99.90
12254;DHT22;6189;52.526;13.390;2024-03-06T02:47:56;7.10;99.90
12254;DHT22;6189;52.526;13.390;2024-03-06T02:50:44;7.10;99.90
12254;DHT22;6189;52.526;13.390;2024-03-06T02:53:31;7.10;99.90
12254;DHT22;6189;52.526;13.390;2024-03-06T02:56:20;7.10;99.90
12254;DHT22;6189;52.526;13.390;2024-03-06T02:59:07;7.00;99.90
12254;DHT22;6189;52.526;13.390;2024-03-06T03:01:54;7.00;99.90
12254;DHT22;6189;52.526;13.390;2024-03-06T03:04:41;7.00;99.90
12254;DHT22;6189;52.526;13.390;2024-03-06T03:07:29;7.00;99.90
12254;DHT22;6189;52.526;13.390;2024-03-06T03:10:16;6.90;99.90
12254;DHT22;6189;52.526;13.390;2024-03-06T03:13:05;6.90;99.90
12254;DHT22;6189;52.526;13.390;2024-03-06T03:15:52;6.90;99.90
12254;DHT22;6189;52.526;13.390;2024-03-06T03:18:39;7.00;99.90
12254;DHT22;6189;52.526;13.390;2024-03-06T03:21:27;7.10;99.90
12254;DHT22;6189;52.526;13.390;2024-03-06T03:24:14;7.10;99.90
12254;DHT22;6189;52.526;13.390;2024-03-06T03:27:01;7.20;99.90
12254;DHT22;6189;52.526;13.390;2024-03-06T03:29:50;7.20;99.90
12254;DHT22;6189;52.526;13.390;2024-03-06T03:32:37;7.20;99.90
12254;DHT22;6189;52.526;13.390;2024-03-06T03:35:25;7.10;99.90
12254;DHT22;6189;52.526;13.390;2024-03-06T03:38:12;7.10;99.90
12254;DHT22;6189;52.526;13.390;2024-03-06T03:40:59;7.00;99.90
12254;DHT22;6189;52.526;13.390;2024-03-06T03:43:46;7.00;99.90
12254;DHT22;6189;52.526;13.390;2024-03-06T03:46:36;6.90;99.90
12254;DHT22;6189;52.526;13.390;2024-03-06T03:49:23;6.90;99.90
12254;DHT22;6189;52.526;13.390;2024-03-06T03:52:12;6.80;99.90
12254;DHT22;6189;52.526;13.390;2024-03-06T03:55:01;7.20;99.90
12254;DHT22;6189;52.526;13.390;2024-03-06T03:57:49;6.80;99.90
12254;DHT22;6189;52.526;13.390;2024-03-06T04:00:36;6.80;99.90
12254;DHT22;6189;52.526;13.390;2024-03-06T04:03:25;6.90;99.90
12254;DHT22;6189;52.526;13.390;2024-03-06T04:06:13;6.90;99.90
12254;DHT22;6189;52.526;13.390;2024-03-06T04:09:00;6.80;99.90
12254;DHT22;6189;52.526;13.390;2024-03-06T04:11:47;6.80;99.90
12254;DHT22;6189;52.526;13.390;2024-03-06T04:14:34;6.80;99.90
12254;DHT22;6189;52.526;13.390;2024-03-06T04:17:21;6.80;99.90
12254;DHT22;6189;52.526;13.390;2024-03-06T04:20:11;6.70;99.90
12254;DHT22;6189;52.526;13.390;2024-03-06T04:22:58;6.70;99.90
12254;DHT22;6189;52.526;13.390;2024-03-06T04:25:46;6.70;99.90
12254;DHT22;6189;52.526;13.390;2024-03-06T04:28:33;6.70;99.90
12254;DHT22;6189;52.526;13.390;2024-03-06T04:31:20;6.80;99.90
12254;DHT22;6189;52.526;13.390;2024-03-06T04:34:07;6.80;99.90
12254;DHT22;6189;52.526;13.390;2024-03-06T04:36:56;6.80;99.90
12254;DHT22;6189;52.526;13.390;2024-03-06T04:39:43;6.80;99.90
12254;DHT22;6189;52.526;13.390;2024-03-06T04:42:30;6.70;99.90
12254;DHT22;6189;52.526;13.390;2024-03-06T04:45:17;6.60;99.90
12254;DHT22;6189;52.526;13.390;2024-03-06T04:48:04;6.50;99.90
12254;DHT22;6189;52.526;13.390;2024-03-06T04:50:52;6.60;99.90
12254;DHT22;6189;52.526;13.390;2024-03-06T04:53:41;6.60;99.90
12254;DHT22;6189;52.526;13.390;2024-03-06T04:56:28;6.60;99.90
12254;DHT22;6189;52.526;13.390;2024-03-06T04:59:15;6.70;99.90
12254;DHT22;6189;52.526;13.390;2024-03-06T05:02:02;6.60;99.90
12254;DHT22;6189;52.526;13.390;2024-03-06T05:04:50;6.60;99.90
12254;DHT22;6189;52.526;13.390;2024-03-06T05:07:37;6.50;99.90
12254;DHT22;6189;52.526;13.390;2024-03-06T05:10:26;6.50;99.90
12254;DHT22;6189;52.526;13.390;2024-03-06T05:13:14;6.60;99.90
12254;DHT22;6189;52.526;13.390;2024-03-06T05:16:01;6.50;99.90
12254;DHT22;6189;52.526;13.390;2024-03-06T05:18:49;6.60;99.90
12254;DHT22;6189;52.526;13.390;2024-03-06T05:21:36;6.60;99.90
12254;DHT22;6189;52.526;13.390;2024-03-06T05:24:23;6.60;99.90
12254;DHT22;6189;52.526;13.390;2024-03-06T05:27:12;6.60;99.90
12254;DHT22;6189;52.526;13.390;2024-03-06T05:30:02;6.60;99.90
12254;DHT22;6189;52.526;13.390;2024-03-06T05:32:51;6.50;99.90
12254;DHT22;6189;52.526;13.390;2024-03-06T05:35:38;6.50;99.90
12254;DHT22;6189;52.526;13.390;2024-03-06T05:38:25;6.40;99.90
12254;DHT22;6189;52.526;13.390;2024-03-06T05:41:13;6.40;99.90
12254;DHT22;6189;52.526;13.390;2024-03-06T05:44:02;6.50;99.90
12254;DHT22;6189;52.526;13.390;2024-03-06T05:46:49;6.50;99.90
12254;DHT22;6189;52.526;13.390;2024-03-06T05:49:36;6.50;99.90
12254;DHT22;6189;52.526;13.390;2024-03-06T05:52:24;6.50;99.90
12254;DHT22;6189;52.526;13.390;2024-03-06T05:55:11;6.40;99.90
12254;DHT22;6189;52.526;13.390;2024-03-06T05:57:58;6.40;99.90
12254;DHT22;6189;52.526;13.390;2024-03-06T06:00:48;6.40;99.90
12254;DHT22;6189;52.526;13.390;2024-03-06T06:03:35;6.40;99.90
12254;DHT22;6189;52.526;13.390;2024-03-06T06:06:22;6.30;99.90
12254;DHT22;6189;52.526;13.390;2024-03-06T06:09:09;6.40;99.90
12254;DHT22;6189;52.526;13.390;2024-03-06T06:12:01;6.20;99.90
12254;DHT22;6189;52.526;13.390;2024-03-06T06:14:48;6.20;99.90
12254;DHT22;6189;52.526;13.390;2024-03-06T06:17:37;6.20;99.90
12254;DHT22;6189;52.526;13.390;2024-03-06T06:20:25;6.20;99.90
12254;DHT22;6189;52.526;13.390;2024-03-06T06:23:12;6.20;99.90
12254;DHT22;6189;52.526;13.390;2024-03-06T06:26:00;6.30;99.90
12254;DHT22;6189;52.526;13.390;2024-03-06T06:28:47;6.30;99.90
12254;DHT22;6189;52.526;13.390;2024-03-06T06:31:34;6.30;99.90
12254;DHT22;6189;52.526;13.390;2024-03-06T06:34:23;6.40;99.90
12254;DHT22;6189;52.526;13.390;2024-03-06T06:37:13;6.70;99.90
12254;DHT22;6189;52.526;13.390;2024-03-06T06:40:01;6.40;99.90
12254;DHT22;6189;52.526;13.390;2024-03-06T06:42:52;6.40;99.90
12254;DHT22;6189;52.526;13.390;2024-03-06T06:45:39;6.50;99.90
12254;DHT22;6189;52.526;13.390;2024-03-06T06:48:26;6.40;99.90
12254;DHT22;6189;52.526;13.390;2024-03-06T06:51:15;6.30;99.90
12254;DHT22;6189;52.526;13.390;2024-03-06T06:54:02;6.30;99.90
12254;DHT22;6189;52.526;13.390;2024-03-06T06:56:50;6.40;99.90
12254;DHT22;6189;52.526;13.390;2024-03-06T06:59:37;6.40;99.90
12254;DHT22;6189;52.526;13.390;2024-03-06T07:02:24;6.40;99.90
12254;DHT22;6189;52.526;13.390;2024-03-06T07:05:11;6.20;99.90
12254;DHT22;6189;52.526;13.390;2024-03-06T07:08:00;6.20;99.90
12254;DHT22;6189;52.526;13.390;2024-03-06T07:10:48;6.10;99.90
12254;DHT22;6189;52.526;13.390;2024-03-06T07:13:35;6.10;99.90
12254;DHT22;6189;52.526;13.390;2024-03-06T07:16:22;6.20;99.90
12254;DHT22;6189;52.526;13.390;2024-03-06T07:19:09;6.30;99.90
12254;DHT22;6189;52.526;13.390;2024-03-06T07:21:56;6.40;99.90
12254;DHT22;6189;52.526;13.390;2024-03-06T07:24:45;6.40;99.90
12254;DHT22;6189;52.526;13.390;2024-03-06T07:27:32;6.50;99.90
12254;DHT22;6189;52.526;13.390;2024-03-06T07:30:19;6.60;99.90
12254;DHT22;6189;52.526;13.390;2024-03-06T07:33:07;6.70;99.90
12254;DHT22;6189;52.526;13.390;2024-03-06T07:35:54;6.80;99.90
12254;DHT22;6189;52.526;13.390;2024-03-06T07:38:42;7.00;99.90
12254;DHT22;6189;52.526;13.390;2024-03-06T07:41:31;6.90;99.90
12254;DHT22;6189;52.526;13.390;2024-03-06T07:44:18;7.00;99.90
12254;DHT22;6189;52.526;13.390;2024-03-06T07:47:06;7.00;99.90
12254;DHT22;6189;52.526;13.390;2024-03-06T07:49:54;7.00;99.90
12254;DHT22;6189;52.526;13.390;2024-03-06T07:52:41;7.00;99.90
12254;DHT22;6189;52.526;13.390;2024-03-06T07:55:29;7.00;99.90
12254;DHT22;6189;52.526;13.390;2024-03-06T07:58:17;7.10;99.90
12254;DHT22;6189;52.526;13.390;2024-03-06T08:01:06;7.10;99.90
12254;DHT22;6189;52.526;13.390;2024-03-06T08:03:54;7.20;99.90
12254;DHT22;6189;52.526;13.390;2024-03-06T08:06:41;7.30;99.90
12254;DHT22;6189;52.526;13.390;2024-03-06T08:09:28;7.30;99.90
12254;DHT22;6189;52.526;13.390;2024-03-06T08:12:15;7.20;99.90
12254;DHT22;6189;52.526;13.390;2024-03-06T08:15:04;7.30;99.90
12254;DHT22;6189;52.526;13.390;2024-03-06T08:17:55;7.30;99.90
12254;DHT22;6189;52.526;13.390;2024-03-06T08:20:43;7.30;99.90
12254;DHT22;6189;52.526;13.390;2024-03-06T08:23:32;7.40;99.90
12254;DHT22;6189;52.526;13.390;2024-03-06T08:26:19;7.80;99.90
12254;DHT22;6189;52.526;13.390;2024-03-06T08:29:06;7.50;99.90
12254;DHT22;6189;52.526;13.390;2024-03-06T08:31:54;7.50;99.90
12254;DHT22;6189;52.526;13.390;2024-03-06T08:34:43;7.50;99.90
12254;DHT22;6189;52.526;13.390;2024-03-06T08:37:30;7.60;99.90
12254;DHT22;6189;52.526;13.390;2024-03-06T08:40:17;7.60;99.90
12254;DHT22;6189;52.526;13.390;2024-03-06T08:43:05;7.60;99.90
12254;DHT22;6189;52.526;13.390;2024-03-06T08:45:52;7.70;99.90
12254;DHT22;6189;52.526;13.390;2024-03-06T08:48:41;7.70;99.90
12254;DHT22;6189;52.526;13.390;2024-03-06T08:51:28;7.80;99.90
12254;DHT22;6189;52.526;13.390;2024-03-06T08:54:15;7.80;99.90
12254;DHT22;6189;52.526;13.390;2024-03-06T08:57:02;7.90;99.90
12254;DHT22;6189;52.526;13.390;2024-03-06T08:59:49;7.90;99.90
12254;DHT22;6189;52.526;13.390;2024-03-06T09:02:37;7.90;99.90
12254;DHT22;6189;52.526;13.390;2024-03-06T09:05:27;8.00;99.90
12254;DHT22;6189;52.526;13.390;2024-03-06T09:08:14;8.00;99.90
12254;DHT22;6189;52.526;13.390;2024-03-06T09:11:02;8.10;99.90
12254;DHT22;6189;52.526;13.390;2024-03-06T09:13:49;8.00;99.90
12254;DHT22;6189;52.526;13.390;2024-03-06T09:16:36;8.10;99.90
12254;DHT22;6189;52.526;13.390;2024-03-06T09:19:23;8.20;99.90
12254;DHT22;6189;52.526;13.390;2024-03-06T09:22:12;8.10;99.90
12254;DHT22;6189;52.526;13.390;2024-03-06T09:24:59;8.10;99.90
12254;DHT22;6189;52.526;13.390;2024-03-06T09:27:46;8.10;99.90
12254;DHT22;6189;52.526;13.390;2024-03-06T09:30:33;8.10;99.90
12254;DHT22;6189;52.526;13.390;2024-03-06T09:33:23;8.20;99.90
12254;DHT22;6189;52.526;13.390;2024-03-06T09:36:10;8.20;99.90
12254;DHT22;6189;52.526;13.390;2024-03-06T09:39:00;8.20;99.90
12254;DHT22;6189;52.526;13.390;2024-03-06T09:41:49;8.30;99.90
12254;DHT22;6189;52.526;13.390;2024-03-06T09:44:36;8.40;99.90
12254;DHT22;6189;52.526;13.390;2024-03-06T09:47:23;8.70;99.90
12254;DHT22;6189;52.526;13.390;2024-03-06T09:50:12;8.60;99.90
12254;DHT22;6189;52.526;13.390;2024-03-06T09:53:03;8.70;99.90
12254;DHT22;6189;52.526;13.390;2024-03-06T09:55:52;8.80;99.90
12254;DHT22;6189;52.526;13.390;2024-03-06T09:58:40;8.90;99.90
12254;DHT22;6189;52.526;13.390;2024-03-06T10:01:27;9.00;99.90
12254;DHT22;6189;52.526;13.390;2024-03-06T10:04:19;9.00;99.90
12254;DHT22;6189;52.526;13.390;2024-03-06T10:07:06;9.10;99.90
12254;DHT22;6189;52.526;13.390;2024-03-06T10:09:53;9.10;99.90
12254;DHT22;6189;52.526;13.390;2024-03-06T10:12:42;9.20;99.90
12254;DHT22;6189;52.526;13.390;2024-03-06T10:15:29;9.20;99.90
12254;DHT22;6189;52.526;13.390;2024-03-06T10:18:17;9.20;99.90
12254;DHT22;6189;52.526;13.390;2024-03-06T10:21:05;9.10;99.90
12254;DHT22;6189;52.526;13.390;2024-03-06T10:23:54;9.10;99.90
12254;DHT22;6189;52.526;13.390;2024-03-06T10:26:44;9.10;99.90
12254;DHT22;6189;52.526;13.390;2024-03-06T10:29:32;9.20;99.90
12254;DHT22;6189;52.526;13.390;2024-03-06T10:32:21;9.10;99.90
12254;DHT22;6189;52.526;13.390;2024-03-06T10:35:08;9.10;99.90
12254;DHT22;6189;52.526;13.390;2024-03-06T10:38:04;9.20;99.90
12254;DHT22;6189;52.526;13.390;2024-03-06T10:40:52;9.20;99.90
12254;DHT22;6189;52.526;13.390;2024-03-06T10:43:40;9.20;99.90
12254;DHT22;6189;52.526;13.390;2024-03-06T10:46:32;9.20;99.90
12254;DHT22;6189;52.526;13.390;2024-03-06T10:49:21;9.20;99.90
12254;DHT22;6189;52.526;13.390;2024-03-06T10:52:09;9.20;99.90
12254;DHT22;6189;52.526;13.390;2024-03-06T10:54:56;9.20;99.90
12254;DHT22;6189;52.526;13.390;2024-03-06T10:57:45;9.20;99.90
12254;DHT22;6189;52.526;13.390;2024-03-06T11:00:33;9.20;99.90
12254;DHT22;6189;52.526;13.390;2024-03-06T11:03:24;9.30;99.90
12254;DHT22;6189;52.526;13.390;2024-03-06T11:06:12;9.30;99.90
12254;DHT22;6189;52.526;13.390;2024-03-06T11:08:59;9.40;99.90
12254;DHT22;6189;52.526;13.390;2024-03-06T11:11:47;9.50;99.90
12254;DHT22;6189;52.526;13.390;2024-03-06T11:14:36;9.50;99.90
12254;DHT22;6189;52.526;13.390;2024-03-06T11:17:25;9.50;99.90
12254;DHT22;6189;52.526;13.390;2024-03-06T11:20:17;9.60;99.90
12254;DHT22;6189;52.526;13.390;2024-03-06T11:23:04;9.70;99.90
12254;DHT22;6189;52.526;13.390;2024-03-06T11:26:01;9.80;99.90
12254;DHT22;6189;52.526;13.390;2024-03-06T11:28:49;9.80;99.90
12254;DHT22;6189;52.526;13.390;2024-03-06T11:31:37;9.80;99.90
12254;DHT22;6189;52.526;13.390;2024-03-06T11:34:24;9.80;99.90
12254;DHT22;6189;52.526;13.390;2024-03-06T11:37:12;9.80;99.90
12254;DHT22;6189;52.526;13.390;2024-03-06T11:39:59;9.80;99.90
12254;DHT22;6189;52.526;13.390;2024-03-06T11:42:47;9.90;99.90
12254;DHT22;6189;52.526;13.390;2024-03-06T11:45:43;10.20;99.90
12254;DHT22;6189;52.526;13.390;2024-03-06T11:48:30;9.90;99.90
12254;DHT22;6189;52.526;13.390;2024-03-06T11:51:17;9.90;99.90
12254;DHT22;6189;52.526;13.390;2024-03-06T11:54:06;9.90;99.90
12254;DHT22;6189;52.526;13.390;2024-03-06T11:56:54;10.00;99.90
12254;DHT22;6189;52.526;13.390;2024-03-06T11:59:41;10.20;99.90
12254;DHT22;6189;52.526;13.390;2024-03-06T12:02:29;10.30;99.90
12254;DHT22;6189;52.526;13.390;2024-03-06T12:05:16;10.30;99.90
12254;DHT22;6189;52.526;13.390;2024-03-06T12:08:06;10.30;99.90
12254;DHT22;6189;52.526;13.390;2024-03-06T12:10:54;10.30;99.90
12254;DHT22;6189;52.526;13.390;2024-03-06T12:13:43;10.40;99.90
12254;DHT22;6189;52.526;13.390;2024-03-06T12:16:32;10.50;99.90
12254;DHT22;6189;52.526;13.390;2024-03-06T12:19:19;10.60;99.90
12254;DHT22;6189;52.526;13.390;2024-03-06T12:22:06;10.60;99.90
12254;DHT22;6189;52.526;13.390;2024-03-06T12:24:58;10.60;99.90
12254;DHT22;6189;52.526;13.390;2024-03-06T12:27:47;10.60;99.90
12254;DHT22;6189;52.526;13.390;2024-03-06T12:30:39;10.80;99.90
12254;DHT22;6189;52.526;13.390;2024-03-06T12:33:28;10.70;99.90
12254;DHT22;6189;52.526;13.390;2024-03-06T12:36:15;10.90;99.90
12254;DHT22;6189;52.526;13.390;2024-03-06T12:39:03;11.00;99.90
12254;DHT22;6189;52.526;13.390;2024-03-06T12:41:58;10.90;99.90
12254;DHT22;6189;52.526;13.390;2024-03-06T12:44:46;10.80;99.90
12254;DHT22;6189;52.526;13.390;2024-03-06T12:47:35;10.80;99.90
12254;DHT22;6189;52.526;13.390;2024-03-06T12:50:22;10.70;99.90
12254;DHT22;6189;52.526;13.390;2024-03-06T12:53:09;10.60;99.90
12254;DHT22;6189;52.526;13.390;2024-03-06T12:55:56;10.60;99.90
12254;DHT22;6189;52.526;13.390;2024-03-06T12:58:43;10.60;99.90
12254;DHT22;6189;52.526;13.390;2024-03-06T13:01:32;10.50;99.90
12254;DHT22;6189;52.526;13.390;2024-03-06T13:04:19;10.40;99.90
12254;DHT22;6189;52.526;13.390;2024-03-06T13:07:06;10.40;99.90
12254;DHT22;6189;52.526;13.390;2024-03-06T13:09:53;10.40;99.90
12254;DHT22;6189;52.526;13.390;2024-03-06T13:12:40;10.40;99.90
12254;DHT22;6189;52.526;13.390;2024-03-06T13:15:28;10.40;99.90
12254;DHT22;6189;52.526;13.390;2024-03-06T13:18:18;10.30;99.90
12254;DHT22;6189;52.526;13.390;2024-03-06T13:21:05;10.30;99.90
12254;DHT22;6189;52.526;13.390;2024-03-06T13:23:52;10.20;99.90
12254;DHT22;6189;52.526;13.390;2024-03-06T13:26:39;10.40;99.90
12254;DHT22;6189;52.526;13.390;2024-03-06T13:29:26;10.30;99.90
12254;DHT22;6189;52.526;13.390;2024-03-06T13:32:14;10.30;99.90
12254;DHT22;6189;52.526;13.390;2024-03-06T13:35:04;10.40;99.90
12254;DHT22;6189;52.526;13.390;2024-03-06T13:37:52;10.30;99.90
12254;DHT22;6189;52.526;13.390;2024-03-06T13:40:39;10.50;99.90
12254;DHT22;6189;52.526;13.390;2024-03-06T13:43:26;10.50;99.90
12254;DHT22;6189;52.526;13.390;2024-03-06T13:46:13;10.40;99.90
12254;DHT22;6189;52.526;13.390;2024-03-06T13:49:00;10.40;99.90
12254;DHT22;6189;52.526;13.390;2024-03-06T13:51:49;10.40;99.90
12254;DHT22;6189;52.526;13.390;2024-03-06T13:54:37;10.40;99.90
12254;DHT22;6189;52.526;13.390;2024-03-06T13:57:25;10.40;99.90
12254;DHT22;6189;52.526;13.390;2024-03-06T14:00:12;10.40;99.90
12254;DHT22;6189;52.526;13.390;2024-03-06T14:03:03;10.40;99.90
12254;DHT22;6189;52.526;13.390;2024-03-06T14:05:50;10.50;99.90
12254;DHT22;6189;52.526;13.390;2024-03-06T14:08:38;10.50;99.90
12254;DHT22;6189;52.526;13.390;2024-03-06T14:11:27;10.50;99.90
12254;DHT22;6189;52.526;13.390;2024-03-06T14:14:14;10.40;99.90
12254;DHT22;6189;52.526;13.390;2024-03-06T14:17:01;10.40;99.90
12254;DHT22;6189;52.526;13.390;2024-03-06T14:19:48;10.40;99.90
12254;DHT22;6189;52.526;13.390;2024-03-06T14:22:35;10.40;99.90
12254;DHT22;6189;52.526;13.390;2024-03-06T14:25:24;10.50;99.90
12254;DHT22;6189;52.526;13.390;2024-03-06T14:28:11;10.30;99.90
12254;DHT22;6189;52.526;13.390;2024-03-06T14:30:58;10.30;99.90
12254;DHT22;6189;52.526;13.390;2024-03-06T14:33:46;10.20;99.90
12254;DHT22;6189;52.526;13.390;2024-03-06T14:36:34;10.20;99.90
12254;DHT22;6189;52.526;13.390;2024-03-06T14:39:21;10.10;99.90
12254;DHT22;6189;52.526;13.390;2024-03-06T14:42:11;10.10;99.90
12254;DHT22;6189;52.526;13.390;2024-03-06T14:44:58;10.20;99.90
12254;DHT22;6189;52.526;13.390;2024-03-06T14:47:50;10.30;99.90
12254;DHT22;6189;52.526;13.390;2024-03-06T14:50:39;10.40;99.90
12254;DHT22;6189;52.526;13.390;2024-03-06T14:53:26;10.40;99.90
12254;DHT22;6189;52.526;13.390;2024-03-06T14:56:13;10.40;99.90
12254;DHT22;6189;52.526;13.390;2024-03-06T14:59:02;10.50;99.90
12254;DHT22;6189;52.526;13.390;2024-03-06T15:01:49;10.40;99.90
12254;DHT22;6189;52.526;13.390;2024-03-06T15:04:37;10.50;99.90
12254;DHT22;6189;52.526;13.390;2024-03-06T15:07:24;10.50;99.90
12254;DHT22;6189;52.526;13.390;2024-03-06T15:10:11;10.50;99.90
12254;DHT22;6189;52.526;13.390;2024-03-06T15:12:58;10.50;99.90
12254;DHT22;6189;52.526;13.390;2024-03-06T15:15:47;10.50;99.90
12254;DHT22;6189;52.526;13.390;2024-03-06T15:18:34;10.50;99.90
12254;DHT22;6189;52.526;13.390;2024-03-06T15:21:21;10.80;99.90
12254;DHT22;6189;52.526;13.390;2024-03-06T15:24:08;10.60;99.90
12254;DHT22;6189;52.526;13.390;2024-03-06T15:26:56;10.60;99.90
12254;DHT22;6189;52.526;13.390;2024-03-06T15:29:43;10.50;99.90
12254;DHT22;6189;52.526;13.390;2024-03-06T15:32:31;10.50;99.90
12254;DHT22;6189;52.526;13.390;2024-03-06T15:35:18;10.50;99.90
12254;DHT22;6189;52.526;13.390;2024-03-06T15:38:05;10.50;99.90
12254;DHT22;6189;52.526;13.390;2024-03-06T15:40:53;10.50;99.90
12254;DHT22;6189;52.526;13.390;2024-03-06T15:43:40;10.50;99.90
12254;DHT22;6189;52.526;13.390;2024-03-06T15:46:28;10.60;99.90
12254;DHT22;6189;52.526;13.390;2024-03-06T15:49:22;10.60;99.90
12254;DHT22;6189;52.526;13.390;2024-03-06T15:52:10;10.60;99.90
12254;DHT22;6189;52.526;13.390;2024-03-06T15:54:57;10.60;99.90
12254;DHT22;6189;52.526;13.390;2024-03-06T15:57:44;10.60;99.90
12254;DHT22;6189;52.526;13.390;2024-03-06T16:00:32;10.60;99.90
12254;DHT22;6189;52.526;13.390;2024-03-06T16:03:19;10.60;99.90
12254;DHT22;6189;52.526;13.390;2024-03-06T16:06:08;10.60;99.90
12254;DHT22;6189;52.526;13.390;2024-03-06T16:08:56;10.60;99.90
12254;DHT22;6189;52.526;13.390;2024-03-06T16:11:43;10.60;99.90
12254;DHT22;6189;52.526;13.390;2024-03-06T16:14:30;10.50;99.90
12254;DHT22;6189;52.526;13.390;2024-03-06T16:17:17;10.40;99.90
12254;DHT22;6189;52.526;13.390;2024-03-06T16:20:04;10.30;99.90
12254;DHT22;6189;52.526;13.390;2024-03-06T16:22:53;10.30;99.90
12254;DHT22;6189;52.526;13.390;2024-03-06T16:25:40;10.20;99.90
12254;DHT22;6189;52.526;13.390;2024-03-06T16:28:28;10.10;99.90
12254;DHT22;6189;52.526;13.390;2024-03-06T16:31:15;10.10;99.90
12254;DHT22;6189;52.526;13.390;2024-03-06T16:34:04;10.00;99.90
12254;DHT22;6189;52.526;13.390;2024-03-06T16:36:51;10.00;99.90
12254;DHT22;6189;52.526;13.390;2024-03-06T16:39:40;10.00;99.90
12254;DHT22;6189;52.526;13.390;2024-03-06T16:42:30;10.00;99.90
12254;DHT22;6189;52.526;13.390;2024-03-06T16:45:18;10.00;99.90
12254;DHT22;6189;52.526;13.390;2024-03-06T16:48:05;10.30;99.90
12254;DHT22;6189;52.526;13.390;2024-03-06T16:50:52;10.00;99.90
12254;DHT22;6189;52.526;13.390;2024-03-06T16:53:39;10.00;99.90
12254;DHT22;6189;52.526;13.390;2024-03-06T16:56:28;9.90;99.90
12254;DHT22;6189;52.526;13.390;2024-03-06T16:59:15;9.90;99.90
12254;DHT22;6189;52.526;13.390;2024-03-06T17:02:03;9.90;99.90
12254;DHT22;6189;52.526;13.390;2024-03-06T17:04:50;9.90;99.90
12254;DHT22;6189;52.526;13.390;2024-03-06T17:07:38;9.80;99.90
12254;DHT22;6189;52.526;13.390;2024-03-06T17:10:25;9.80;99.90
12254;DHT22;6189;52.526;13.390;2024-03-06T17:13:19;9.80;99.90
12254;DHT22;6189;52.526;13.390;2024-03-06T17:16:07;9.80;99.90
12254;DHT22;6189;52.526;13.390;2024-03-06T17:18:54;9.90;99.90
12254;DHT22;6189;52.526;13.390;2024-03-06T17:21:41;9.40;99.90
12254;DHT22;6189;52.526;13.390;2024-03-06T17:24:28;9.90;99.90
12254;DHT22;6189;52.526;13.390;2024-03-06T17:27:17;9.80;99.90
12254;DHT22;6189;52.526;13.390;2024-03-06T17:30:06;9.80;99.90
12254;DHT22;6189;52.526;13.390;2024-03-06T17:32:54;9.80;99.90
12254;DHT22;6189;52.526;13.390;2024-03-06T17:35:42;9.80;99.90
12254;DHT22;6189;52.526;13.390;2024-03-06T17:38:29;9.80;99.90
12254;DHT22;6189;52.526;13.390;2024-03-06T17:41:17;10.00;99.90
12254;DHT22;6189;52.526;13.390;2024-03-06T17:44:04;9.80;99.90
12254;DHT22;6189;52.526;13.390;2024-03-06T17:46:53;9.70;99.90
12254;DHT22;6189;52.526;13.390;2024-03-06T17:49:40;9.70;99.90
12254;DHT22;6189;52.526;13.390;2024-03-06T17:52:27;9.70;99.90